Svitlovods'K, Ukraine
Current Conditions -  °F | °C
As of 2:30 AM on Sunday 23 Nov 2014 (Local Time) from UKDR Reporting Station
Clear Clear  
Wind Chill: 13°   Ceiling: Unl
Heat Index: 19°   Visibility: 6mi
Dew Point: 16°   Wind: 4mph
Humidity: 86%   Direction: 30°NNE
Pressure: 30.36"   Gusts: NA
Location:  49.05°N, 33.25°E
Report Text: UKDR 222330Z 03002MPS CAVOK M07/M09 Q1028 3609//64 NOSIG
Loading
Personal Weather Stations






























Interactive Weather Map New forecast layout! Learn more

10-Day Weather Forecast

Advertisements
Track Severe Weather on mobile